createdAt,value
2022-11-10T00:00:23.087Z,96693.06
2022-11-10T00:03:20.248Z,96692.34
2022-11-10T00:06:17.319Z,96696.91
2022-11-10T00:09:15.200Z,96696.03
2022-11-10T00:12:12.222Z,96700.25
2022-11-10T00:15:29.761Z,96698.81
2022-11-10T00:18:26.607Z,96706.19
2022-11-10T00:21:23.621Z,96712.41
2022-11-10T00:24:20.609Z,96720.72
2022-11-10T00:27:17.485Z,96723.97
2022-11-10T00:30:14.674Z,96718.78
2022-11-10T00:33:11.482Z,96723.84
2022-11-10T00:36:08.933Z,96723.41
2022-11-10T00:39:06.210Z,96728.25
2022-11-10T00:42:03.703Z,96723.84
2022-11-10T00:45:00.625Z,96735.78
2022-11-10T00:47:57.452Z,96745.03
2022-11-10T00:50:54.280Z,96739.59
2022-11-10T00:53:51.549Z,96746.66
2022-11-10T00:56:48.382Z,96750.88
2022-11-10T00:59:45.205Z,96753.97
2022-11-10T01:02:42.425Z,96753.78
2022-11-10T01:05:39.436Z,96757.25
2022-11-10T01:08:37.211Z,96771.22
2022-11-10T01:11:34.074Z,96776.78
2022-11-10T01:14:30.894Z,96779.09
2022-11-10T01:17:29.960Z,96791.06
2022-11-10T01:20:26.981Z,96790.28
2022-11-10T01:23:24.218Z,96789.09
2022-11-10T01:26:21.538Z,96787.03
2022-11-10T01:29:18.378Z,96791.66
2022-11-10T01:32:15.434Z,96812.75
2022-11-10T01:35:12.348Z,96810.66
2022-11-10T01:38:09.186Z,96809.81
2022-11-10T01:41:08.870Z,96830.97
2022-11-10T01:44:24.445Z,96817.69
2022-11-10T01:47:21.273Z,96821.13
2022-11-10T01:50:20.281Z,96835.22
2022-11-10T01:53:26.764Z,96834.97
2022-11-10T01:56:25.759Z,96832.75
2022-11-10T01:59:27.889Z,96837.56
2022-11-10T02:02:32.490Z,96825.03
2022-11-10T02:05:29.600Z,96844.19
2022-11-10T02:08:27.774Z,96844.41
2022-11-10T02:11:27.560Z,96841.81
2022-11-10T02:14:24.938Z,96858.06
2022-11-10T02:17:21.780Z,96848.81
2022-11-10T02:20:20.941Z,96842.75
2022-11-10T02:23:29.917Z,96842.97
2022-11-10T02:26:29.926Z,96844.69
2022-11-10T02:29:26.992Z,96848.31
2022-11-10T02:32:23.975Z,96848.44
2022-11-10T02:35:20.838Z,96857.81
2022-11-10T02:38:17.850Z,96857.09
2022-11-10T02:41:14.719Z,96852.28
2022-11-10T02:44:11.593Z,96862.13
2022-11-10T02:47:08.938Z,96865.34
2022-11-10T02:50:06.283Z,96861.69
2022-11-10T02:53:03.822Z,96869.16
2022-11-10T02:56:00.665Z,96870.66
2022-11-10T02:58:57.653Z,96870.13
2022-11-10T03:01:54.470Z,96879.66
2022-11-10T03:04:51.313Z,96883.38
2022-11-10T03:07:57.797Z,96886.53
2022-11-10T03:10:56.428Z,96886.25
2022-11-10T03:14:01.557Z,96900.91
2022-11-10T03:16:59.012Z,96900.91
2022-11-10T03:19:55.839Z,96910.53
2022-11-10T03:22:52.669Z,96901.16
2022-11-10T03:25:49.639Z,96899.09
2022-11-10T03:28:46.540Z,96912.69
2022-11-10T03:31:43.369Z,96924.13
2022-11-10T03:34:40.241Z,96926.50
2022-11-10T03:37:37.080Z,96929.81
2022-11-10T03:40:50.881Z,96927.66
2022-11-10T03:43:51.134Z,96927.81
2022-11-10T03:46:51.430Z,96933.09
2022-11-10T03:49:48.645Z,96929.09
2022-11-10T03:52:46.521Z,96930.75
2022-11-10T03:55:43.344Z,96932.06
2022-11-10T03:58:41.097Z,96937.41
2022-11-10T04:01:38.005Z,96940.56
2022-11-10T04:04:53.225Z,96939.97
2022-11-10T04:08:15.668Z,96937.09
2022-11-10T04:11:12.512Z,96941.66
2022-11-10T04:14:28.208Z,96950.00
2022-11-10T04:17:25.019Z,96952.88
2022-11-10T04:20:21.949Z,96960.66
2022-11-10T04:23:28.448Z,96971.00
2022-11-10T04:26:32.800Z,96968.31
2022-11-10T04:29:29.634Z,96983.22
2022-11-10T04:32:26.450Z,96980.22
2022-11-10T04:35:23.247Z,96977.03
2022-11-10T04:38:20.070Z,96986.56
2022-11-10T04:41:17.698Z,96978.63
2022-11-10T04:44:14.546Z,96983.78
2022-11-10T04:47:12.095Z,96985.56
2022-11-10T04:50:09.625Z,96972.72
2022-11-10T04:53:06.494Z,96982.56
2022-11-10T04:56:03.378Z,96985.19
2022-11-10T04:59:00.230Z,96999.31
2022-11-10T05:01:57.042Z,97001.19
2022-11-10T05:04:53.844Z,97009.72
2022-11-10T05:07:50.686Z,97020.09
2022-11-10T05:10:47.562Z,97015.31
2022-11-10T05:13:45.982Z,97030.00
2022-11-10T05:16:42.844Z,97041.72
2022-11-10T05:19:39.766Z,97044.09
2022-11-10T05:22:36.935Z,97053.69
2022-11-10T05:25:36.835Z,97040.03
2022-11-10T05:28:34.304Z,97042.00
2022-11-10T05:31:31.349Z,97046.56
2022-11-10T05:34:28.166Z,97048.13
2022-11-10T05:37:24.976Z,97065.72
2022-11-10T05:40:21.905Z,97064.13
2022-11-10T05:43:19.017Z,97067.09
2022-11-10T05:46:15.954Z,97076.91
2022-11-10T05:49:12.840Z,97083.63
2022-11-10T05:52:09.700Z,97079.63
2022-11-10T05:55:06.962Z,97096.22
2022-11-10T05:58:03.886Z,97099.94
2022-11-10T06:01:00.770Z,97099.94
2022-11-10T06:03:57.699Z,97112.97
2022-11-10T06:06:54.672Z,97119.41
2022-11-10T06:09:51.517Z,97123.41
2022-11-10T06:12:48.443Z,97132.25
2022-11-10T06:15:50.147Z,97141.28
2022-11-10T06:18:47.453Z,97144.50
2022-11-10T06:21:44.408Z,97146.63
2022-11-10T06:24:41.220Z,97150.34
2022-11-10T06:27:38.093Z,97155.94
2022-11-10T06:30:37.043Z,97158.59
2022-11-10T06:33:33.845Z,97158.38
2022-11-10T06:36:30.678Z,97169.03
2022-11-10T06:39:27.491Z,97185.84
2022-11-10T06:42:24.442Z,97191.41
2022-11-10T06:45:22.503Z,97191.69
2022-11-10T06:48:19.621Z,97178.91
2022-11-10T06:51:16.493Z,97175.69
2022-11-10T06:54:13.324Z,97193.81
2022-11-10T06:57:10.503Z,97194.31
2022-11-10T07:00:08.445Z,97203.06
2022-11-10T07:03:07.983Z,97217.22
2022-11-10T07:06:05.179Z,97228.19
2022-11-10T07:09:02.000Z,97241.53
2022-11-10T07:11:58.827Z,97230.28
2022-11-10T07:14:55.687Z,97235.38
2022-11-10T07:17:52.739Z,97232.13
2022-11-10T07:20:49.566Z,97231.81
2022-11-10T07:23:46.861Z,97230.19
2022-11-10T07:26:43.758Z,97248.69
2022-11-10T07:29:40.561Z,97255.34
2022-11-10T07:32:37.393Z,97248.69
2022-11-10T07:35:34.922Z,97262.84
2022-11-10T07:38:31.759Z,97272.16
2022-11-10T07:41:28.606Z,97274.78
2022-11-10T07:44:26.203Z,97278.81
2022-11-10T07:47:24.589Z,97279.63
2022-11-10T07:50:21.435Z,97287.13
2022-11-10T07:53:21.034Z,97291.41
2022-11-10T07:56:18.087Z,97299.69
2022-11-10T07:59:14.907Z,97309.03
2022-11-10T08:02:12.310Z,97315.44
2022-11-10T08:05:09.555Z,97305.28
2022-11-10T08:08:06.930Z,97303.72
2022-11-10T08:11:03.784Z,97300.44
2022-11-10T08:14:00.655Z,97305.31
2022-11-10T08:16:57.652Z,97302.34
2022-11-10T08:19:54.486Z,97320.78
2022-11-10T08:23:01.512Z,97332.00
2022-11-10T08:26:00.222Z,97339.69
2022-11-10T08:28:58.035Z,97341.59
2022-11-10T08:31:54.903Z,97344.00
2022-11-10T08:34:52.295Z,97346.09
2022-11-10T08:37:49.824Z,97345.84
2022-11-10T08:40:47.413Z,97361.88
2022-11-10T08:43:44.464Z,97364.25
2022-11-10T08:46:44.264Z,97374.66
2022-11-10T08:49:41.446Z,97387.22
2022-11-10T08:52:38.791Z,97398.97
2022-11-10T08:55:35.928Z,97402.19
2022-11-10T08:58:32.740Z,97414.47
2022-11-10T09:01:29.572Z,97413.38
2022-11-10T09:04:26.509Z,97419.78
2022-11-10T09:07:23.469Z,97423.78
2022-11-10T09:10:20.329Z,97435.53
2022-11-10T09:13:18.886Z,97428.31
2022-11-10T09:16:15.996Z,97423.75
2022-11-10T09:19:18.474Z,97431.22
2022-11-10T09:22:16.573Z,97439.78
2022-11-10T09:25:13.392Z,97437.56
2022-11-10T09:28:14.254Z,97439.69
2022-11-10T09:31:11.005Z,97456.78
2022-11-10T09:34:07.827Z,97463.78
2022-11-10T09:37:04.679Z,97461.38
2022-11-10T09:40:01.799Z,97468.38
2022-11-10T09:43:01.875Z,97467.28
2022-11-10T09:46:06.224Z,97466.94
2022-11-10T09:49:34.891Z,97469.03
2022-11-10T09:52:35.114Z,97460.00
2022-11-10T09:55:41.065Z,97469.09
2022-11-10T09:58:43.865Z,97477.91
2022-11-10T10:02:22.815Z,97473.63
2022-11-10T10:05:51.612Z,97475.00
2022-11-10T10:09:26.072Z,97477.41
2022-11-10T10:13:10.226Z,97479.56
2022-11-10T10:16:27.290Z,97479.22
2022-11-10T10:19:46.626Z,97482.75
2022-11-10T10:23:05.158Z,97494.53
2022-11-10T10:26:02.565Z,97499.63
2022-11-10T10:29:08.138Z,97505.72
2022-11-10T10:32:09.706Z,97498.00
2022-11-10T10:35:11.990Z,97511.38
2022-11-10T10:38:21.107Z,97487.56
2022-11-10T10:41:30.448Z,97489.66
2022-11-10T10:44:27.314Z,97496.09
2022-11-10T10:47:37.733Z,97501.97
2022-11-10T10:50:42.635Z,97495.00
2022-11-10T10:53:49.020Z,97492.59
2022-11-10T10:56:46.805Z,97489.44
2022-11-10T10:59:43.730Z,97490.19
2022-11-10T11:02:40.601Z,97503.25
2022-11-10T11:05:37.438Z,97509.38
2022-11-10T11:08:34.770Z,97504.78
2022-11-10T11:11:44.799Z,97497.34
2022-11-10T11:14:45.784Z,97514.13
2022-11-10T11:18:10.825Z,97504.47
2022-11-10T11:21:40.760Z,97498.59
2022-11-10T11:25:16.280Z,97495.19
2022-11-10T11:29:03.536Z,97493.53
2022-11-10T11:32:16.545Z,97499.13
2022-11-10T11:35:37.672Z,97507.44
2022-11-10T11:39:12.237Z,97499.66
2022-11-10T11:42:18.106Z,97498.38
2022-11-10T11:45:45.633Z,97505.81
2022-11-10T11:49:34.572Z,97520.75
2022-11-10T11:52:45.423Z,97520.59
2022-11-10T11:55:57.263Z,97533.13
2022-11-10T11:58:59.407Z,97525.94
2022-11-10T12:02:38.882Z,97531.72
2022-11-10T12:06:14.364Z,97525.84
2022-11-10T12:09:44.737Z,97523.94
2022-11-10T12:13:09.353Z,97514.94
2022-11-10T12:16:26.883Z,97526.44
2022-11-10T12:19:58.917Z,97531.53
2022-11-10T12:23:35.506Z,97532.84
2022-11-10T12:27:04.112Z,97530.41
2022-11-10T12:30:14.487Z,97541.06
2022-11-10T12:33:35.053Z,97522.91
2022-11-10T12:36:33.365Z,97529.84
2022-11-10T12:39:49.932Z,97540.00
2022-11-10T12:43:01.080Z,97529.84
2022-11-10T12:46:08.071Z,97536.63
2022-11-10T12:49:19.425Z,97536.09
2022-11-10T12:52:27.225Z,97537.44
2022-11-10T12:55:42.750Z,97541.16
2022-11-10T12:58:39.991Z,97538.38
2022-11-10T13:01:44.299Z,97540.44
2022-11-10T13:04:41.224Z,97549.66
2022-11-10T13:07:38.253Z,97544.19
2022-11-10T13:10:35.227Z,97542.88
2022-11-10T13:13:58.153Z,97539.88
2022-11-10T13:16:56.550Z,97540.16
2022-11-10T13:19:58.955Z,97561.53
2022-11-10T13:22:58.589Z,97559.97
2022-11-10T13:26:05.738Z,97560.94
2022-11-10T13:29:18.678Z,97562.81
2022-11-10T13:32:15.376Z,97567.59
2022-11-10T13:35:30.496Z,97557.31
2022-11-10T13:38:44.425Z,97566.03
2022-11-10T13:42:07.328Z,97573.97
2022-11-10T13:45:35.160Z,97575.06
2022-11-10T13:49:15.344Z,97571.28
2022-11-10T13:52:37.516Z,97578.47
2022-11-10T13:56:04.710Z,97571.81
2022-11-10T13:59:14.994Z,97570.28
2022-11-10T14:02:39.088Z,97578.63
2022-11-10T14:05:38.526Z,97581.78
2022-11-10T14:08:40.022Z,97589.16
2022-11-10T14:11:45.786Z,97593.72
2022-11-10T14:15:05.127Z,97593.00
2022-11-10T14:18:02.984Z,97594.69
2022-11-10T14:21:02.057Z,97595.31
2022-11-10T14:24:27.398Z,97596.88
2022-11-10T14:27:31.312Z,97609.50
2022-11-10T14:30:33.604Z,97605.75
2022-11-10T14:33:30.606Z,97600.69
2022-11-10T14:36:27.558Z,97609.50
2022-11-10T14:39:34.025Z,97602.56
2022-11-10T14:42:33.956Z,97604.53
2022-11-10T14:45:30.826Z,97606.41
2022-11-10T14:48:31.244Z,97606.97
2022-11-10T14:51:29.565Z,97612.94
2022-11-10T14:54:28.383Z,97611.91
2022-11-10T14:57:25.342Z,97619.16
2022-11-10T15:00:27.654Z,97616.22
2022-11-10T15:03:42.027Z,97630.47
2022-11-10T15:06:43.069Z,97630.19
2022-11-10T15:10:27.404Z,97636.44
2022-11-10T15:13:27.190Z,97634.25
2022-11-10T15:16:31.476Z,97642.84
2022-11-10T15:19:35.460Z,97635.38
2022-11-10T15:22:36.663Z,97635.09
2022-11-10T15:25:40.232Z,97644.97
2022-11-10T15:28:37.237Z,97648.44
2022-11-10T15:31:36.620Z,97646.31
2022-11-10T15:34:44.114Z,97645.75
2022-11-10T15:37:40.979Z,97655.06
2022-11-10T15:40:45.232Z,97659.38
2022-11-10T15:43:42.418Z,97657.44
2022-11-10T15:46:39.285Z,97654.53
2022-11-10T15:49:38.311Z,97676.34
2022-11-10T15:52:37.666Z,97670.03
2022-11-10T15:55:35.494Z,97679.56
2022-11-10T15:58:32.374Z,97685.91
2022-11-10T16:01:30.487Z,97670.38
2022-11-10T16:04:27.504Z,97675.19
2022-11-10T16:07:24.332Z,97674.09
2022-11-10T16:10:22.457Z,97694.91
2022-11-10T16:13:27.133Z,97683.56
2022-11-10T16:16:24.681Z,97684.72
2022-11-10T16:19:21.519Z,97681.84
2022-11-10T16:22:18.369Z,97686.94
2022-11-10T16:25:22.640Z,97676.25
2022-11-10T16:28:26.424Z,97680.19
2022-11-10T16:31:26.044Z,97687.06
2022-11-10T16:34:22.873Z,97700.69
2022-11-10T16:37:19.711Z,97704.22
2022-11-10T16:40:24.013Z,97703.81
2022-11-10T16:43:21.551Z,97706.91
2022-11-10T16:46:22.860Z,97722.63
2022-11-10T16:49:34.633Z,97723.41
2022-11-10T16:52:31.477Z,97726.38
2022-11-10T16:55:28.618Z,97732.53
2022-11-10T16:58:27.298Z,97730.09
2022-11-10T17:01:28.866Z,97731.97
2022-11-10T17:04:25.735Z,97735.56
2022-11-10T17:07:26.812Z,97728.94
2022-11-10T17:10:23.832Z,97734.25
2022-11-10T17:13:20.668Z,97745.78
2022-11-10T17:16:33.702Z,97747.38
2022-11-10T17:19:30.926Z,97756.31
2022-11-10T17:22:33.315Z,97759.91
2022-11-10T17:25:34.163Z,97769.84
2022-11-10T17:28:30.914Z,97764.88
2022-11-10T17:31:27.825Z,97763.97
2022-11-10T17:34:24.691Z,97749.56
2022-11-10T17:37:21.594Z,97763.28
2022-11-10T17:40:22.546Z,97768.06
2022-11-10T17:43:19.549Z,97770.31
2022-11-10T17:46:16.952Z,97762.28
2022-11-10T17:49:13.870Z,97766.00
2022-11-10T17:52:18.242Z,97766.97
2022-11-10T17:55:29.777Z,97768.19
2022-11-10T17:58:30.571Z,97762.75
2022-11-10T18:01:27.515Z,97761.53
2022-11-10T18:04:26.347Z,97766.91
2022-11-10T18:07:23.302Z,97761.41
2022-11-10T18:10:20.591Z,97773.41
2022-11-10T18:13:18.545Z,97781.38
2022-11-10T18:16:15.590Z,97782.25
2022-11-10T18:19:12.402Z,97790.81
2022-11-10T18:22:09.314Z,97791.06
2022-11-10T18:25:09.086Z,97787.09
2022-11-10T18:28:06.427Z,97795.22
2022-11-10T18:31:12.655Z,97796.84
2022-11-10T18:34:09.573Z,97794.66
2022-11-10T18:37:07.249Z,97797.47
2022-11-10T18:40:04.618Z,97784.59
2022-11-10T18:43:07.222Z,97790.25
2022-11-10T18:46:04.683Z,97792.81
2022-11-10T18:49:01.554Z,97790.16
2022-11-10T18:51:59.037Z,97798.72
2022-11-10T18:54:55.939Z,97788.41
2022-11-10T18:57:52.939Z,97804.25
2022-11-10T19:00:50.033Z,97822.84
2022-11-10T19:03:46.941Z,97816.63
2022-11-10T19:06:44.079Z,97818.25
2022-11-10T19:09:41.056Z,97815.22
2022-11-10T19:12:37.981Z,97821.03
2022-11-10T19:15:41.259Z,97832.38
2022-11-10T19:18:39.399Z,97830.09
2022-11-10T19:21:36.232Z,97833.19
2022-11-10T19:24:42.385Z,97838.00
2022-11-10T19:27:44.943Z,97846.34
2022-11-10T19:30:41.788Z,97846.09
2022-11-10T19:33:42.506Z,97845.09
2022-11-10T19:36:39.449Z,97839.91
2022-11-10T19:39:36.386Z,97851.69
2022-11-10T19:42:33.843Z,97860.25
2022-11-10T19:45:30.738Z,97851.56
2022-11-10T19:48:27.660Z,97849.03
2022-11-10T19:51:25.210Z,97847.19
2022-11-10T19:54:22.160Z,97857.75
2022-11-10T19:57:19.029Z,97852.41
2022-11-10T20:00:16.839Z,97842.00
2022-11-10T20:03:14.473Z,97846.31
2022-11-10T20:06:19.213Z,97857.38
2022-11-10T20:09:16.036Z,97862.44
2022-11-10T20:12:12.871Z,97860.69
2022-11-10T20:15:11.019Z,97865.66
2022-11-10T20:18:09.824Z,97868.47
2022-11-10T20:21:13.346Z,97867.09
2022-11-10T20:24:10.167Z,97871.34
2022-11-10T20:27:06.977Z,97873.06
2022-11-10T20:30:04.903Z,97874.91
2022-11-10T20:33:05.097Z,97871.22
2022-11-10T20:36:19.891Z,97881.50
2022-11-10T20:39:17.859Z,97878.84
2022-11-10T20:42:15.084Z,97882.78
2022-11-10T20:45:12.031Z,97886.00
2022-11-10T20:48:08.887Z,97881.38
2022-11-10T20:51:24.169Z,97886.13
2022-11-10T20:54:21.131Z,97885.84
2022-11-10T20:57:18.092Z,97888.88
2022-11-10T21:00:15.669Z,97890.16
2022-11-10T21:03:12.486Z,97894.16
2022-11-10T21:06:09.833Z,97895.69
2022-11-10T21:09:07.260Z,97910.63
2022-11-10T21:12:22.688Z,97910.25
2022-11-10T21:15:20.987Z,97912.47
2022-11-10T21:18:19.067Z,97911.53
2022-11-10T21:21:27.873Z,97908.72
2022-11-10T21:24:26.547Z,97912.63
2022-11-10T21:27:23.394Z,97905.50
2022-11-10T21:30:23.161Z,97909.81
2022-11-10T21:33:20.080Z,97893.59
2022-11-10T21:36:17.061Z,97906.72
2022-11-10T21:39:14.059Z,97904.28
2022-11-10T21:42:11.073Z,97908.22
2022-11-10T21:45:09.782Z,97902.31
2022-11-10T21:48:07.145Z,97918.22
2022-11-10T21:51:07.151Z,97921.78
2022-11-10T21:54:04.086Z,97914.81
2022-11-10T21:57:00.988Z,97922.34
2022-11-10T21:59:57.839Z,97925.13
2022-11-10T22:03:00.852Z,97920.28
2022-11-10T22:06:13.381Z,97912.53
2022-11-10T22:09:10.336Z,97911.69
2022-11-10T22:12:31.848Z,97908.16
2022-11-10T22:15:47.404Z,97925.69
2022-11-10T22:18:46.534Z,97910.66
2022-11-10T22:21:44.221Z,97914.63
2022-11-10T22:24:41.327Z,97927.94
2022-11-10T22:27:38.197Z,97926.03
2022-11-10T22:30:37.709Z,97930.94
2022-11-10T22:33:36.530Z,97950.34
2022-11-10T22:36:33.682Z,97930.41
2022-11-10T22:39:48.924Z,97931.69
2022-11-10T22:43:04.558Z,97928.44
2022-11-10T22:46:01.731Z,97927.88
2022-11-10T22:48:58.640Z,97929.44
2022-11-10T22:51:55.569Z,97925.66
2022-11-10T22:54:52.431Z,97924.19
2022-11-10T22:57:52.944Z,97923.31
2022-11-10T23:00:49.825Z,97925.50
2022-11-10T23:03:46.800Z,97936.88
2022-11-10T23:06:43.776Z,97934.41
2022-11-10T23:09:40.641Z,97933.19
2022-11-10T23:12:37.536Z,97934.34
2022-11-10T23:15:34.598Z,97928.22
2022-11-10T23:18:31.955Z,97918.59
2022-11-10T23:21:30.683Z,97919.78
2022-11-10T23:24:27.510Z,97920.22
2022-11-10T23:27:24.374Z,97920.41
2022-11-10T23:30:21.480Z,97927.78
2022-11-10T23:33:18.337Z,97924.22
2022-11-10T23:36:18.351Z,97919.09
2022-11-10T23:39:15.320Z,97921.00
2022-11-10T23:42:12.389Z,97916.22
2022-11-10T23:45:10.120Z,97926.53
2022-11-10T23:48:07.190Z,97927.59
2022-11-10T23:51:06.009Z,97932.94
2022-11-10T23:54:02.873Z,97936.25
2022-11-10T23:56:59.792Z,97934.81
2022-11-10T23:59:56.737Z,97934.13
